createdAt,value
2019-01-26T00:00:26.643Z,99886.08
2019-01-26T00:02:57.227Z,99879.80
2019-01-26T00:05:30.216Z,99879.80
2019-01-26T00:08:00.734Z,99873.65
2019-01-26T00:10:32.641Z,99873.65
2019-01-26T00:13:03.176Z,99877.53
2019-01-26T00:15:33.509Z,99878.71
2019-01-26T00:18:04.744Z,99878.36
2019-01-26T00:20:36.552Z,99870.13
2019-01-26T00:23:07.331Z,99867.47
2019-01-26T00:25:38.424Z,99867.61
2019-01-26T00:28:08.624Z,99854.98
2019-01-26T00:30:38.796Z,99856.28
2019-01-26T00:33:10.457Z,99852.16
2019-01-26T00:35:41.172Z,99860.22
2019-01-26T00:38:12.847Z,99853.52
2019-01-26T00:40:43.832Z,99852.45
2019-01-26T00:43:14.272Z,99848.54
2019-01-26T00:45:44.556Z,99846.51
2019-01-26T00:48:14.747Z,99844.30
2019-01-26T00:50:45.360Z,99833.17
2019-01-26T00:53:15.470Z,99839.34
2019-01-26T00:55:45.667Z,99838.53
2019-01-26T00:58:16.577Z,99823.95
2019-01-26T01:00:46.758Z,99832.96
2019-01-26T01:03:17.291Z,99826.09
2019-01-26T01:05:47.659Z,99836.07
2019-01-26T01:08:18.329Z,99828.92
2019-01-26T01:10:48.575Z,99832.81
2019-01-26T01:13:18.820Z,99827.69
2019-01-26T01:15:49.445Z,99820.83
2019-01-26T01:18:19.949Z,99818.18
2019-01-26T01:20:50.882Z,99806.27
2019-01-26T01:23:21.335Z,99806.27
2019-01-26T01:25:51.546Z,99781.13
2019-01-26T01:28:21.721Z,99800.87
2019-01-26T01:30:52.228Z,99796.59
2019-01-26T01:33:22.603Z,99792.18
2019-01-26T01:35:52.933Z,99791.04
2019-01-26T01:38:35.840Z,99773.80
2019-01-26T01:41:06.808Z,99778.01
2019-01-26T01:43:37.368Z,99773.97
2019-01-26T01:46:07.691Z,99760.09
2019-01-26T01:48:38.225Z,99772.39
2019-01-26T01:51:08.636Z,99755.45
2019-01-26T01:53:39.227Z,99753.55
2019-01-26T01:56:10.036Z,99755.61
2019-01-26T01:58:40.493Z,99756.30
2019-01-26T02:01:10.870Z,99752.25
2019-01-26T02:03:41.745Z,99735.50
2019-01-26T02:06:12.324Z,99743.81
2019-01-26T02:08:42.608Z,99728.71
2019-01-26T02:11:13.029Z,99722.02
2019-01-26T02:13:43.803Z,99708.84
2019-01-26T02:16:14.476Z,99696.95
2019-01-26T02:18:44.496Z,99694.07
2019-01-26T02:21:14.680Z,99689.87
2019-01-26T02:23:44.980Z,99686.45
2019-01-26T02:26:15.393Z,99682.95
2019-01-26T02:28:45.690Z,99679.07
2019-01-26T02:31:16.017Z,99670.00
2019-01-26T02:33:46.197Z,99666.50
2019-01-26T02:36:16.443Z,99663.97
2019-01-26T02:38:46.509Z,99655.54
2019-01-26T02:41:16.862Z,99658.35
2019-01-26T02:43:47.229Z,99656.98
2019-01-26T02:46:17.694Z,99647.39
2019-01-26T02:48:48.693Z,99637.70
2019-01-26T02:51:19.343Z,99633.37
2019-01-26T02:53:49.720Z,99634.03
2019-01-26T02:56:20.247Z,99623.23
2019-01-26T02:58:50.394Z,99622.59
2019-01-26T03:01:20.698Z,99623.07
2019-01-26T03:03:51.229Z,99616.22
2019-01-26T03:06:22.802Z,99610.50
2019-01-26T03:08:53.363Z,99613.31
2019-01-26T03:11:23.645Z,99609.53
2019-01-26T03:13:53.852Z,99605.92
2019-01-26T03:16:24.224Z,99608.07
2019-01-26T03:18:54.536Z,99598.91
2019-01-26T03:21:24.775Z,99596.95
2019-01-26T03:23:55.553Z,99588.05
2019-01-26T03:26:25.684Z,99586.05
2019-01-26T03:28:56.133Z,99582.77
2019-01-26T03:31:26.651Z,99572.41
2019-01-26T03:33:57.205Z,99572.41
2019-01-26T03:36:27.577Z,99571.27
2019-01-26T03:38:57.851Z,99573.86
2019-01-26T03:41:28.464Z,99571.72
2019-01-26T03:43:58.711Z,99570.36
2019-01-26T03:46:29.166Z,99565.72
2019-01-26T03:48:59.390Z,99567.55
2019-01-26T03:51:29.896Z,99563.50
2019-01-26T03:54:01.039Z,99554.27
2019-01-26T03:56:31.684Z,99546.18
2019-01-26T03:59:02.135Z,99541.61
2019-01-26T04:01:33.101Z,99527.98
2019-01-26T04:04:03.556Z,99524.38
2019-01-26T04:06:33.763Z,99520.97
2019-01-26T04:09:06.030Z,99512.72
2019-01-26T04:11:36.441Z,99510.45
2019-01-26T04:14:06.964Z,99507.37
2019-01-26T04:16:37.591Z,99503.27
2019-01-26T04:19:07.853Z,99495.88
2019-01-26T04:21:38.468Z,99493.28
2019-01-26T04:24:08.917Z,99485.69
2019-01-26T04:26:39.186Z,99486.06
2019-01-26T04:29:11.356Z,99484.77
2019-01-26T04:31:41.675Z,99481.59
2019-01-26T04:34:12.285Z,99472.94
2019-01-26T04:36:42.632Z,99466.26
2019-01-26T04:39:13.913Z,99462.38
2019-01-26T04:41:45.350Z,99457.42
2019-01-26T04:44:15.362Z,99459.03
2019-01-26T04:46:45.559Z,99450.03
2019-01-26T04:49:15.685Z,99446.53
2019-01-26T04:51:46.123Z,99441.45
2019-01-26T04:54:16.539Z,99424.00
2019-01-26T04:56:46.764Z,99424.00
2019-01-26T04:59:17.367Z,99420.86
2019-01-26T05:01:47.497Z,99420.86
2019-01-26T05:04:17.611Z,99412.81
2019-01-26T05:06:47.767Z,99410.60
2019-01-26T05:09:18.436Z,99397.85
2019-01-26T05:11:48.451Z,99392.66
2019-01-26T05:14:19.707Z,99391.00
2019-01-26T05:16:50.111Z,99380.66
2019-01-26T05:19:20.225Z,99374.36
2019-01-26T05:21:50.656Z,99359.39
2019-01-26T05:24:21.296Z,99359.39
2019-01-26T05:26:51.586Z,99366.06
2019-01-26T05:29:21.841Z,99365.33
2019-01-26T05:31:52.669Z,99364.96
2019-01-26T05:34:22.848Z,99363.86
2019-01-26T05:36:53.243Z,99369.70
2019-01-26T05:39:23.708Z,99366.77
2019-01-26T05:41:54.163Z,99359.06
2019-01-26T05:44:24.572Z,99359.06
2019-01-26T05:46:54.848Z,99342.41
2019-01-26T05:49:25.840Z,99336.13
2019-01-26T05:51:56.337Z,99324.83
2019-01-26T05:54:26.385Z,99321.69
2019-01-26T05:56:56.598Z,99317.62
2019-01-26T05:59:26.795Z,99304.66
2019-01-26T06:01:57.289Z,99300.40
2019-01-26T06:04:27.345Z,99292.73
2019-01-26T06:06:57.753Z,99298.66
2019-01-26T06:09:28.236Z,99294.84
2019-01-26T06:11:58.516Z,99291.63
2019-01-26T06:14:28.819Z,99295.95
2019-01-26T06:16:59.250Z,99303.73
2019-01-26T06:19:29.542Z,99306.06
2019-01-26T06:21:59.695Z,99306.70
2019-01-26T06:24:30.034Z,99297.73
2019-01-26T06:27:00.344Z,99303.84
2019-01-26T06:29:30.930Z,99305.77
2019-01-26T06:32:01.216Z,99309.66
2019-01-26T06:34:31.553Z,99302.92
2019-01-26T06:37:01.733Z,99294.84
2019-01-26T06:39:32.205Z,99299.66
2019-01-26T06:42:02.607Z,99301.14
2019-01-26T06:44:32.851Z,99296.69
2019-01-26T06:47:03.362Z,99293.20
2019-01-26T06:49:33.477Z,99289.50
2019-01-26T06:52:14.294Z,99292.09
2019-01-26T06:54:45.369Z,99279.75
2019-01-26T06:57:15.785Z,99283.74
2019-01-26T06:59:46.248Z,99279.73
2019-01-26T07:02:16.693Z,99272.23
2019-01-26T07:04:55.669Z,99266.87
2019-01-26T07:07:25.807Z,99271.13
2019-01-26T07:09:56.490Z,99277.98
2019-01-26T07:12:26.814Z,99270.83
2019-01-26T07:14:57.279Z,99274.09
2019-01-26T07:17:27.526Z,99266.58
2019-01-26T07:19:58.751Z,99266.56
2019-01-26T07:22:29.135Z,99256.30
2019-01-26T07:24:59.541Z,99258.14
2019-01-26T07:27:29.743Z,99253.53
2019-01-26T07:30:00.197Z,99251.84
2019-01-26T07:32:32.853Z,99251.17
2019-01-26T07:35:03.430Z,99248.52
2019-01-26T07:37:33.749Z,99243.58
2019-01-26T07:40:04.730Z,99243.58
2019-01-26T07:42:35.142Z,99236.28
2019-01-26T07:45:05.506Z,99230.89
2019-01-26T07:47:35.686Z,99234.24
2019-01-26T07:50:07.869Z,99237.20
2019-01-26T07:52:38.414Z,99229.23
2019-01-26T07:55:09.345Z,99221.70
2019-01-26T07:57:39.668Z,99218.16
2019-01-26T08:00:13.290Z,99210.73
2019-01-26T08:02:43.523Z,99212.12
2019-01-26T08:05:14.267Z,99217.50
2019-01-26T08:07:44.810Z,99207.69
2019-01-26T08:10:17.864Z,99197.13
2019-01-26T08:12:48.476Z,99194.34
2019-01-26T08:15:33.199Z,99190.79
2019-01-26T08:18:03.835Z,99185.85
2019-01-26T08:20:34.646Z,99181.56
2019-01-26T08:23:05.191Z,99184.84
2019-01-26T08:25:36.413Z,99176.77
2019-01-26T08:28:06.775Z,99167.43
2019-01-26T08:30:37.671Z,99165.25
2019-01-26T08:33:08.135Z,99178.14
2019-01-26T08:35:38.663Z,99173.69
2019-01-26T08:38:09.268Z,99168.02
2019-01-26T08:40:39.449Z,99173.13
2019-01-26T08:43:09.628Z,99177.19
2019-01-26T08:45:40.038Z,99165.86
2019-01-26T08:48:10.430Z,99165.26
2019-01-26T08:50:40.738Z,99162.95
2019-01-26T08:53:11.312Z,99161.56
2019-01-26T08:55:41.454Z,99163.11
2019-01-26T08:58:11.615Z,99155.84
2019-01-26T09:00:41.910Z,99151.50
2019-01-26T09:03:28.385Z,99154.87
2019-01-26T09:06:11.080Z,99150.32
2019-01-26T09:08:41.681Z,99149.59
2019-01-26T09:11:12.032Z,99152.83
2019-01-26T09:13:42.443Z,99150.32
2019-01-26T09:16:12.778Z,99156.05
2019-01-26T09:18:44.426Z,99154.02
2019-01-26T09:21:14.731Z,99159.64
2019-01-26T09:23:45.260Z,99153.77
2019-01-26T09:26:15.924Z,99152.22
2019-01-26T09:28:46.678Z,99152.57
2019-01-26T09:31:20.098Z,99152.57
2019-01-26T09:33:50.447Z,99146.44
2019-01-26T09:36:20.627Z,99147.73
2019-01-26T09:38:50.861Z,99138.95
2019-01-26T09:41:21.371Z,99134.81
2019-01-26T09:43:51.615Z,99130.38
2019-01-26T09:46:21.855Z,99124.66
2019-01-26T09:48:52.437Z,99122.09
2019-01-26T09:51:22.659Z,99120.22
2019-01-26T09:53:52.973Z,99119.79
2019-01-26T09:56:23.528Z,99114.86
2019-01-26T09:58:53.744Z,99110.98
2019-01-26T10:01:24.287Z,99114.81
2019-01-26T10:03:55.173Z,99101.02
2019-01-26T10:06:26.804Z,99091.03
2019-01-26T10:08:57.281Z,99091.03
2019-01-26T10:11:27.643Z,99098.75
2019-01-26T10:13:57.878Z,99095.48
2019-01-26T10:16:28.491Z,99086.95
2019-01-26T10:18:58.538Z,99079.80
2019-01-26T10:21:28.674Z,99090.21
2019-01-26T10:24:00.307Z,99079.35
2019-01-26T10:26:30.638Z,99085.64
2019-01-26T10:29:00.892Z,99082.09
2019-01-26T10:31:31.359Z,99081.51
2019-01-26T10:34:01.618Z,99075.32
2019-01-26T10:36:46.599Z,99085.64
2019-01-26T10:39:18.650Z,99070.97
2019-01-26T10:42:08.778Z,99073.26
2019-01-26T10:44:39.678Z,99068.02
2019-01-26T10:47:10.149Z,99060.11
2019-01-26T10:49:40.298Z,99059.53
2019-01-26T10:52:10.527Z,99054.01
2019-01-26T10:54:41.105Z,99058.23
2019-01-26T10:57:11.677Z,99054.09
2019-01-26T10:59:42.230Z,99044.91
2019-01-26T11:02:14.034Z,99040.77
2019-01-26T11:04:44.259Z,99040.67
2019-01-26T11:07:15.829Z,99038.30
2019-01-26T11:09:46.412Z,99042.56
2019-01-26T11:12:16.550Z,99047.90
2019-01-26T11:14:46.801Z,99037.36
2019-01-26T11:17:17.180Z,99034.66
2019-01-26T11:19:47.685Z,99039.41
2019-01-26T11:22:18.993Z,99032.08
2019-01-26T11:24:49.375Z,99031.95
2019-01-26T11:27:19.675Z,99030.77
2019-01-26T11:29:49.841Z,99030.67
2019-01-26T11:32:20.460Z,99030.45
2019-01-26T11:34:51.050Z,99028.45
2019-01-26T11:37:21.558Z,99026.08
2019-01-26T11:39:58.415Z,99021.23
2019-01-26T11:42:28.563Z,99021.84
2019-01-26T11:45:20.869Z,99025.37
2019-01-26T11:47:51.303Z,99010.72
2019-01-26T11:50:29.055Z,99012.73
2019-01-26T11:52:59.408Z,99010.34
2019-01-26T11:55:51.007Z,99013.80
2019-01-26T11:58:21.341Z,99011.54
2019-01-26T12:01:19.837Z,99010.00
2019-01-26T12:03:58.835Z,99003.48
2019-01-26T12:06:35.146Z,99001.47
2019-01-26T12:09:08.291Z,99003.03
2019-01-26T12:11:39.026Z,99001.23
2019-01-26T12:14:09.547Z,98998.62
2019-01-26T12:16:39.807Z,99001.49
2019-01-26T12:19:11.600Z,98988.58
2019-01-26T12:21:41.835Z,98987.73
2019-01-26T12:24:12.505Z,98988.70
2019-01-26T12:26:42.648Z,98996.14
2019-01-26T12:29:12.859Z,98989.73
2019-01-26T12:31:43.341Z,98985.38
2019-01-26T12:34:13.678Z,98983.58
2019-01-26T12:36:44.303Z,98978.15
2019-01-26T12:39:14.656Z,98986.19
2019-01-26T12:41:56.015Z,98982.88
2019-01-26T12:44:26.389Z,98976.70
2019-01-26T12:46:58.123Z,98976.25
2019-01-26T12:49:29.654Z,98976.25
2019-01-26T12:52:00.421Z,98973.05
2019-01-26T12:54:30.642Z,98969.36
2019-01-26T12:57:00.664Z,98971.62
2019-01-26T12:59:30.965Z,98974.23
2019-01-26T13:02:01.499Z,98977.33
2019-01-26T13:04:31.730Z,98962.92
2019-01-26T13:07:02.565Z,98960.38
2019-01-26T13:09:32.794Z,98959.48
2019-01-26T13:12:03.423Z,98973.91
2019-01-26T13:14:33.670Z,98973.91
2019-01-26T13:17:04.181Z,98967.35
2019-01-26T13:19:37.015Z,98970.53
2019-01-26T13:22:07.185Z,98968.92
2019-01-26T13:24:37.547Z,98963.15
2019-01-26T13:27:07.821Z,98968.87
2019-01-26T13:29:38.437Z,98964.39
2019-01-26T13:32:08.682Z,98967.64
2019-01-26T13:34:38.931Z,98967.39
2019-01-26T13:37:09.516Z,98967.98
2019-01-26T13:39:39.583Z,98962.06
2019-01-26T13:42:09.946Z,98967.88
2019-01-26T13:44:40.265Z,98962.31
2019-01-26T13:47:10.544Z,98960.66
2019-01-26T13:49:44.142Z,98971.94
2019-01-26T13:52:12.588Z,98970.38
2019-01-26T13:54:42.731Z,98968.27
2019-01-26T13:57:13.244Z,98972.17
2019-01-26T13:59:43.662Z,98972.03
2019-01-26T14:02:13.995Z,98970.73
2019-01-26T14:04:44.119Z,98977.39
2019-01-26T14:07:14.269Z,98973.70
2019-01-26T14:09:44.323Z,98975.14
2019-01-26T14:12:15.853Z,98975.46
2019-01-26T14:14:52.574Z,98973.95
2019-01-26T14:17:22.828Z,98969.54
2019-01-26T14:19:53.329Z,98974.30
2019-01-26T14:22:23.785Z,98975.70
2019-01-26T14:24:54.383Z,98979.02
2019-01-26T14:27:24.689Z,98975.11
2019-01-26T14:29:55.300Z,98975.70
2019-01-26T14:32:25.750Z,98979.02
2019-01-26T14:34:56.207Z,98979.63
2019-01-26T14:37:26.793Z,98987.80
2019-01-26T14:39:57.219Z,98989.45
2019-01-26T14:42:27.530Z,98987.55
2019-01-26T14:44:57.583Z,98983.75
2019-01-26T14:47:27.577Z,98985.30
2019-01-26T14:49:58.527Z,98985.30
2019-01-26T14:52:29.190Z,98990.38
2019-01-26T14:54:59.630Z,98984.70
2019-01-26T14:57:30.299Z,98990.27
2019-01-26T15:00:00.448Z,98990.27
2019-01-26T15:02:30.657Z,99001.77
2019-01-26T15:05:00.751Z,98995.10
2019-01-26T15:07:31.059Z,99002.22
2019-01-26T15:10:01.266Z,98998.66
2019-01-26T15:12:31.644Z,98999.97
2019-01-26T15:15:01.903Z,98997.57
2019-01-26T15:17:33.615Z,99000.08
2019-01-26T15:20:06.020Z,99000.42
2019-01-26T15:22:36.580Z,99001.38
2019-01-26T15:25:07.702Z,98999.12
2019-01-26T15:27:38.183Z,99005.05
2019-01-26T15:30:14.247Z,99007.16
2019-01-26T15:32:44.549Z,99002.44
2019-01-26T15:35:16.280Z,98994.47
2019-01-26T15:37:50.352Z,98997.92
2019-01-26T15:40:20.634Z,99001.23
2019-01-26T15:42:51.274Z,98996.02
2019-01-26T15:45:27.172Z,98999.58
2019-01-26T15:47:57.496Z,98999.58
2019-01-26T15:50:27.747Z,99006.45
2019-01-26T15:52:58.066Z,98995.66
2019-01-26T15:55:28.734Z,99003.25
2019-01-26T15:57:59.204Z,99002.05
2019-01-26T16:00:32.173Z,99009.77
2019-01-26T16:03:02.734Z,99005.26
2019-01-26T16:05:33.340Z,99010.23
2019-01-26T16:08:03.615Z,99009.42
2019-01-26T16:10:33.873Z,99010.48
2019-01-26T16:13:04.331Z,99011.08
2019-01-26T16:15:34.769Z,99008.96
2019-01-26T16:18:06.445Z,99007.76
2019-01-26T16:20:36.679Z,99012.63
2019-01-26T16:23:09.648Z,99012.27
2019-01-26T16:25:40.577Z,99013.09
2019-01-26T16:28:10.746Z,99011.78
2019-01-26T16:30:41.329Z,99012.63
2019-01-26T16:33:11.655Z,99019.50
2019-01-26T16:35:42.367Z,99014.64
2019-01-26T16:38:12.920Z,99012.84
2019-01-26T16:40:43.522Z,99019.37
2019-01-26T16:43:24.089Z,99019.50
2019-01-26T16:45:54.354Z,99017.25
2019-01-26T16:48:24.726Z,99014.64
2019-01-26T16:50:55.426Z,99014.85
2019-01-26T16:53:27.482Z,99022.57
2019-01-26T16:55:57.612Z,99021.27
2019-01-26T16:58:27.880Z,99023.28
2019-01-26T17:01:17.166Z,99017.81
2019-01-26T17:03:47.492Z,99017.81
2019-01-26T17:06:18.054Z,99020.42
2019-01-26T17:08:48.549Z,99014.25
2019-01-26T17:11:19.345Z,99020.52
2019-01-26T17:13:49.460Z,99020.17
2019-01-26T17:16:20.124Z,99019.22
2019-01-26T17:18:50.293Z,99025.74
2019-01-26T17:21:24.098Z,99024.80
2019-01-26T17:23:55.649Z,99023.59
2019-01-26T17:26:26.186Z,99029.66
2019-01-26T17:28:56.388Z,99026.45
2019-01-26T17:31:26.660Z,99031.92
2019-01-26T17:33:56.836Z,99024.55
2019-01-26T17:36:28.373Z,99025.04
2019-01-26T17:38:58.467Z,99026.34
2019-01-26T17:41:28.563Z,99032.98
2019-01-26T17:43:58.709Z,99029.55
2019-01-26T17:46:29.016Z,99031.81
2019-01-26T17:48:59.333Z,99027.41
2019-01-26T17:51:29.674Z,99032.63
2019-01-26T17:54:00.281Z,99031.46
2019-01-26T17:56:30.506Z,99037.98
2019-01-26T17:59:00.702Z,99032.87
2019-01-26T18:01:30.838Z,99037.98
2019-01-26T18:04:01.387Z,99037.28
2019-01-26T18:06:31.518Z,99035.98
2019-01-26T18:09:01.995Z,99032.41
2019-01-26T18:11:32.177Z,99028.84
2019-01-26T18:14:02.412Z,99032.77
2019-01-26T18:16:32.617Z,99024.94
2019-01-26T18:19:02.855Z,99029.66
2019-01-26T18:21:33.346Z,99023.63
2019-01-26T18:24:05.926Z,99022.33
2019-01-26T18:26:36.209Z,99020.53
2019-01-26T18:29:06.459Z,99020.53
2019-01-26T18:31:36.778Z,99029.66
2019-01-26T18:34:07.543Z,99029.42
2019-01-26T18:36:40.195Z,99020.88
2019-01-26T18:39:11.380Z,99021.38
2019-01-26T18:41:42.569Z,99023.03
2019-01-26T18:44:12.720Z,99026.34
2019-01-26T18:46:44.517Z,99015.30
2019-01-26T18:49:14.666Z,99022.64
2019-01-26T18:51:46.545Z,99020.73
2019-01-26T18:54:22.929Z,99019.67
2019-01-26T18:56:53.385Z,99014.45
2019-01-26T18:59:24.355Z,99018.23
2019-01-26T19:01:54.616Z,99013.25
2019-01-26T19:04:33.055Z,99013.95
2019-01-26T19:07:03.190Z,99018.22
2019-01-26T19:09:33.722Z,99015.83
2019-01-26T19:12:04.413Z,99016.88
2019-01-26T19:14:35.541Z,99016.06
2019-01-26T19:17:05.929Z,99022.94
2019-01-26T19:19:36.382Z,99020.19
2019-01-26T19:22:06.742Z,99024.60
2019-01-26T19:24:37.224Z,99018.07
2019-01-26T19:27:07.999Z,99020.33
2019-01-26T19:29:38.338Z,99020.33
2019-01-26T19:32:08.770Z,99013.55
2019-01-26T19:34:39.356Z,99009.75
2019-01-26T19:37:11.433Z,99004.06
2019-01-26T19:39:41.834Z,99007.63
2019-01-26T19:42:12.306Z,99012.60
2019-01-26T19:44:44.525Z,99004.02
2019-01-26T19:47:15.207Z,99000.95
2019-01-26T19:49:45.619Z,98995.47
2019-01-26T19:52:16.199Z,98997.98
2019-01-26T19:54:46.363Z,98995.28
2019-01-26T19:57:19.401Z,98999.30
2019-01-26T19:59:51.280Z,98995.87
2019-01-26T20:02:21.494Z,98994.77
2019-01-26T20:04:51.602Z,98986.69
2019-01-26T20:07:22.278Z,98986.69
2019-01-26T20:09:52.517Z,98989.75
2019-01-26T20:12:23.022Z,98984.93
2019-01-26T20:14:53.973Z,98979.01
2019-01-26T20:17:24.541Z,98990.75
2019-01-26T20:19:54.904Z,98996.44
2019-01-26T20:22:25.623Z,98992.66
2019-01-26T20:24:58.696Z,98992.66
2019-01-26T20:27:29.409Z,98981.47
2019-01-26T20:29:59.900Z,98982.88
2019-01-26T20:32:30.850Z,98973.53
2019-01-26T20:35:01.931Z,98980.88
2019-01-26T20:37:32.600Z,98986.34
2019-01-26T20:40:02.932Z,98985.19
2019-01-26T20:42:33.543Z,98979.96
2019-01-26T20:45:05.762Z,98974.39
2019-01-26T20:47:36.378Z,98979.61
2019-01-26T20:50:08.179Z,98974.39
2019-01-26T20:52:38.374Z,98970.47
2019-01-26T20:55:09.023Z,98979.36
2019-01-26T20:57:39.588Z,98969.38
2019-01-26T21:00:14.148Z,98968.56
2019-01-26T21:02:44.811Z,98975.69
2019-01-26T21:05:15.948Z,98976.05
2019-01-26T21:07:46.545Z,98969.52
2019-01-26T21:10:22.053Z,98961.43
2019-01-26T21:12:52.500Z,98954.41
2019-01-26T21:15:23.086Z,98954.41
2019-01-26T21:17:53.513Z,98962.39
2019-01-26T21:20:24.659Z,98964.55
2019-01-26T21:22:55.039Z,98964.90
2019-01-26T21:25:25.348Z,98964.41
2019-01-26T21:27:55.761Z,98960.63
2019-01-26T21:30:28.268Z,98963.24
2019-01-26T21:32:59.059Z,98967.27
2019-01-26T21:35:29.531Z,98961.84
2019-01-26T21:37:59.792Z,98961.34
2019-01-26T21:40:32.094Z,98959.44
2019-01-26T21:43:03.234Z,98965.61
2019-01-26T21:45:33.822Z,98966.11
2019-01-26T21:48:04.419Z,98956.31
2019-01-26T21:50:34.931Z,98962.39
2019-01-26T21:53:06.832Z,98949.39
2019-01-26T21:55:37.230Z,98949.39
2019-01-26T21:58:07.434Z,98953.52
2019-01-26T22:00:48.234Z,98951.84
2019-01-26T22:03:18.444Z,98949.48
2019-01-26T22:05:48.675Z,98946.98
2019-01-26T22:08:18.971Z,98935.48
2019-01-26T22:10:49.517Z,98927.04
2019-01-26T22:13:19.704Z,98930.62
2019-01-26T22:15:50.214Z,98939.31
2019-01-26T22:18:20.551Z,98936.59
2019-01-26T22:20:50.663Z,98933.02
2019-01-26T22:23:21.103Z,98936.59
2019-01-26T22:25:51.756Z,98935.28
2019-01-26T22:28:22.186Z,98924.39
2019-01-26T22:30:52.423Z,98925.80
2019-01-26T22:33:22.741Z,98922.73
2019-01-26T22:35:53.387Z,98926.40
2019-01-26T22:38:23.493Z,98930.57
2019-01-26T22:40:53.751Z,98928.27
2019-01-26T22:43:24.228Z,98925.91
2019-01-26T22:45:54.659Z,98921.04
2019-01-26T22:48:25.021Z,98916.96
2019-01-26T22:50:55.455Z,98912.09
2019-01-26T22:53:25.601Z,98912.84
2019-01-26T22:55:55.873Z,98909.53
2019-01-26T22:58:26.216Z,98912.00
2019-01-26T23:01:03.413Z,98907.36
2019-01-26T23:03:39.575Z,98911.04
2019-01-26T23:06:52.779Z,98907.03
2019-01-26T23:09:48.839Z,98908.32
2019-01-26T23:12:54.045Z,98901.65
2019-01-26T23:15:59.911Z,98904.84
2019-01-26T23:19:11.246Z,98904.33
2019-01-26T23:22:34.148Z,98903.86
2019-01-26T23:25:50.837Z,98900.41
2019-01-26T23:28:39.054Z,98895.94
2019-01-26T23:31:21.483Z,98893.98
2019-01-26T23:33:53.287Z,98897.43
2019-01-26T23:36:24.113Z,98894.47
2019-01-26T23:38:54.602Z,98891.16
2019-01-26T23:41:24.869Z,98890.11
2019-01-26T23:43:55.654Z,98887.66
2019-01-26T23:46:26.085Z,98885.91
2019-01-26T23:48:56.204Z,98876.02
2019-01-26T23:51:26.741Z,98879.22
2019-01-26T23:53:57.175Z,98867.58
2019-01-26T23:56:27.290Z,98860.88
2019-01-26T23:58:57.556Z,98857.78
